createdAt,value
2023-04-17T00:05:21.113Z,18.20
2023-04-17T00:11:24.442Z,13.30
2023-04-17T00:17:27.674Z,13.30
2023-04-17T00:20:29.478Z,15.80
2023-04-17T00:26:32.651Z,20.00
2023-04-17T00:32:35.994Z,18.80
2023-04-17T00:35:37.733Z,20.40
2023-04-17T00:41:41.435Z,18.60
2023-04-17T00:47:44.718Z,17.60
2023-04-17T00:53:48.231Z,17.50
2023-04-17T00:56:51.198Z,14.50
2023-04-17T00:59:53.098Z,14.60
2023-04-17T01:02:57.200Z,15.40
2023-04-17T01:05:59.363Z,19.20
2023-04-17T01:09:01.319Z,15.50
2023-04-17T01:12:24.295Z,17.20
2023-04-17T01:15:26.116Z,16.20
2023-04-17T01:18:27.893Z,17.90
2023-04-17T01:21:29.698Z,18.60
2023-04-17T01:27:32.871Z,17.10
2023-04-17T01:33:36.061Z,19.30
2023-04-17T01:36:37.700Z,17.60
2023-04-17T01:42:40.955Z,18.30
2023-04-17T01:48:44.183Z,19.10
2023-04-17T01:51:45.837Z,19.00
2023-04-17T01:57:49.916Z,18.60
2023-04-17T02:00:51.596Z,20.00
2023-04-17T02:06:55.166Z,17.60
2023-04-17T02:12:58.402Z,20.00
2023-04-17T02:19:01.605Z,20.60
2023-04-17T02:25:05.149Z,22.00
2023-04-17T02:28:06.800Z,21.60
2023-04-17T02:34:10.608Z,16.90
2023-04-17T02:40:14.932Z,19.30
2023-04-17T02:43:16.592Z,19.70
2023-04-17T02:49:19.926Z,24.10
2023-04-17T02:58:25.253Z,23.90
2023-04-17T03:01:27.024Z,29.50
2023-04-17T03:07:30.168Z,31.50
2023-04-17T03:10:31.888Z,32.30
2023-04-17T03:16:36.654Z,30.30
2023-04-17T03:19:38.368Z,29.00
2023-04-17T03:25:41.711Z,27.20
2023-04-17T03:31:45.046Z,27.00
2023-04-17T03:34:47.168Z,34.70
2023-04-17T03:37:48.824Z,34.20
2023-04-17T03:43:52.146Z,30.00
2023-04-17T03:52:57.535Z,26.90
2023-04-17T03:55:59.191Z,27.00
2023-04-17T04:02:02.673Z,26.70
2023-04-17T04:05:04.784Z,25.00
2023-04-17T04:08:06.695Z,28.10
2023-04-17T04:14:09.947Z,25.10
2023-04-17T04:20:13.172Z,26.40
2023-04-17T04:23:15.044Z,27.90
2023-04-17T04:29:18.317Z,29.10
2023-04-17T04:35:21.774Z,29.50
2023-04-17T04:38:23.542Z,32.10
2023-04-17T04:41:26.281Z,39.50
2023-04-17T04:44:27.925Z,43.10
2023-04-17T04:50:31.899Z,31.20
2023-04-17T04:53:33.575Z,35.50
2023-04-17T04:56:35.275Z,32.70
2023-04-17T05:02:41.049Z,28.60
2023-04-17T05:05:42.982Z,32.70
2023-04-17T05:08:44.587Z,31.10
2023-04-17T05:14:47.779Z,29.70
2023-04-17T05:20:51.687Z,30.10
2023-04-17T05:23:53.786Z,31.50
2023-04-17T05:26:55.425Z,34.00
2023-04-17T05:36:00.631Z,36.30
2023-04-17T05:39:02.317Z,38.30
2023-04-17T05:42:04.224Z,38.20
2023-04-17T05:45:06.310Z,33.50
2023-04-17T05:48:07.968Z,33.40
2023-04-17T05:51:09.623Z,32.80
2023-04-17T05:54:11.274Z,30.20
2023-04-17T05:57:12.867Z,28.10
2023-04-17T06:00:15.128Z,29.80
2023-04-17T06:03:18.265Z,28.20
2023-04-17T06:06:20.506Z,26.80
2023-04-17T06:09:23.520Z,26.30
2023-04-17T06:12:27.288Z,23.90
2023-04-17T06:15:29.092Z,22.00
2023-04-17T06:18:30.763Z,22.10
2023-04-17T06:21:32.592Z,21.90
2023-04-17T06:24:34.599Z,21.50
2023-04-17T06:27:37.267Z,21.20
2023-04-17T06:30:39.286Z,21.20
2023-04-17T06:33:40.988Z,21.40
2023-04-17T06:36:42.661Z,21.50
2023-04-17T06:39:44.300Z,21.60
2023-04-17T06:42:46.001Z,20.80
2023-04-17T06:45:48.483Z,21.10
2023-04-17T06:48:50.158Z,20.40
2023-04-17T06:51:51.756Z,20.80
2023-04-17T06:54:56.681Z,20.20
2023-04-17T06:57:58.245Z,18.80
2023-04-17T07:00:59.816Z,19.00
2023-04-17T07:04:01.618Z,22.40
2023-04-17T07:07:03.461Z,22.50
2023-04-17T07:10:06.437Z,21.40
2023-04-17T07:13:08.008Z,25.10
2023-04-17T07:16:09.688Z,21.10
2023-04-17T07:19:11.660Z,22.80
2023-04-17T07:22:13.612Z,21.60
2023-04-17T07:25:15.605Z,23.30
2023-04-17T07:28:18.032Z,23.00
2023-04-17T07:31:19.842Z,25.40
2023-04-17T07:34:21.641Z,26.40
2023-04-17T07:37:23.235Z,27.10
2023-04-17T07:40:25.181Z,27.80
2023-04-17T07:43:27.640Z,25.50
2023-04-17T07:46:29.344Z,25.30
2023-04-17T07:49:31.008Z,27.70
2023-04-17T07:52:32.720Z,26.90
2023-04-17T07:55:34.317Z,28.20
2023-04-17T07:58:36.052Z,27.20
2023-04-17T08:01:37.788Z,28.70
2023-04-17T08:04:39.778Z,28.10
2023-04-17T08:07:41.665Z,31.40
2023-04-17T08:10:43.353Z,28.00
2023-04-17T08:13:45.013Z,27.20
2023-04-17T08:16:47.493Z,28.90
2023-04-17T08:19:49.513Z,27.70
2023-04-17T08:22:51.130Z,28.30
2023-04-17T08:25:52.747Z,26.80
2023-04-17T08:28:54.461Z,25.20
2023-04-17T08:32:12.792Z,26.20
2023-04-17T08:35:16.757Z,27.50
2023-04-17T08:38:18.408Z,27.70
2023-04-17T08:41:22.073Z,29.20
2023-04-17T08:44:23.732Z,28.50
2023-04-17T08:47:25.482Z,27.40
2023-04-17T08:50:27.320Z,27.20
2023-04-17T08:53:29.052Z,27.80
2023-04-17T08:56:30.668Z,27.30
2023-04-17T08:59:32.743Z,22.90
2023-04-17T09:02:51.927Z,24.40
2023-04-17T09:05:57.224Z,22.60
2023-04-17T09:09:02.259Z,20.20
2023-04-17T09:12:08.885Z,19.50
2023-04-17T09:15:17.506Z,19.00
2023-04-17T09:18:28.023Z,18.80
2023-04-17T09:21:29.812Z,18.70
2023-04-17T09:24:35.416Z,17.70
2023-04-17T09:27:37.212Z,19.60
2023-04-17T09:30:40.440Z,19.10
2023-04-17T09:34:03.782Z,19.10
2023-04-17T09:37:05.475Z,20.50
2023-04-17T09:40:07.738Z,21.00
2023-04-17T09:43:10.292Z,19.50
2023-04-17T09:46:12.815Z,20.80
2023-04-17T09:49:38.648Z,20.40
2023-04-17T09:52:40.724Z,18.20
2023-04-17T09:55:42.634Z,19.20
2023-04-17T09:58:44.618Z,19.20
2023-04-17T10:01:46.304Z,18.90
2023-04-17T10:04:48.128Z,19.30
2023-04-17T10:07:49.942Z,20.00
2023-04-17T10:10:51.999Z,19.30
2023-04-17T10:14:04.495Z,20.10
2023-04-17T10:17:26.674Z,18.20
2023-04-17T10:20:28.625Z,18.50
2023-04-17T10:23:32.352Z,18.40
2023-04-17T10:26:34.616Z,18.40
2023-04-17T10:29:55.756Z,18.50
2023-04-17T10:36:40.444Z,18.30
2023-04-17T10:39:50.224Z,17.50
2023-04-17T10:43:10.456Z,20.80
2023-04-17T10:46:13.279Z,19.20
2023-04-17T10:49:15.266Z,17.30
2023-04-17T10:52:32.231Z,18.00
2023-04-17T10:55:34.005Z,17.90
2023-04-17T10:58:39.878Z,18.10
2023-04-17T11:01:47.736Z,18.50
2023-04-17T11:05:06.550Z,17.30
2023-04-17T11:08:09.940Z,17.20
2023-04-17T11:11:11.609Z,15.40
2023-04-17T11:14:15.270Z,14.70
2023-04-17T11:17:17.217Z,13.90
2023-04-17T11:20:23.798Z,14.60
2023-04-17T11:23:30.296Z,13.30
2023-04-17T11:26:31.904Z,14.10
2023-04-17T11:29:33.664Z,14.40
2023-04-17T11:32:38.308Z,14.80
2023-04-17T11:35:41.811Z,15.60
2023-04-17T11:38:47.723Z,14.90
2023-04-17T11:41:51.415Z,15.70
2023-04-17T11:44:53.105Z,17.00
2023-04-17T11:47:54.865Z,15.40
2023-04-17T11:51:04.007Z,15.80
2023-04-17T11:54:05.844Z,16.00
2023-04-17T11:57:12.801Z,17.40
2023-04-17T12:00:14.951Z,17.60
2023-04-17T12:03:36.212Z,15.80
2023-04-17T12:09:40.146Z,16.90
2023-04-17T12:12:41.753Z,19.10
2023-04-17T12:15:43.675Z,19.40
2023-04-17T12:18:45.336Z,20.60
2023-04-17T12:21:47.041Z,20.40
2023-04-17T12:24:48.793Z,20.20
2023-04-17T12:27:50.599Z,19.90
2023-04-17T12:30:52.338Z,20.40
2023-04-17T12:33:53.940Z,19.80
2023-04-17T12:36:55.693Z,19.30
2023-04-17T12:39:57.520Z,20.00
2023-04-17T12:42:59.140Z,20.60
2023-04-17T12:46:00.865Z,18.90
2023-04-17T12:49:02.696Z,19.50
2023-04-17T12:52:04.407Z,23.90
2023-04-17T12:55:06.558Z,22.50
2023-04-17T12:58:08.860Z,18.80
2023-04-17T13:01:10.652Z,20.00
2023-04-17T13:04:12.729Z,16.50
2023-04-17T13:07:14.807Z,17.00
2023-04-17T13:10:16.562Z,18.20
2023-04-17T13:13:18.221Z,18.20
2023-04-17T13:16:19.856Z,15.40
2023-04-17T13:19:21.461Z,14.40
2023-04-17T13:22:23.160Z,14.40
2023-04-17T13:25:25.018Z,17.40
2023-04-17T13:28:26.707Z,13.60
2023-04-17T13:31:28.548Z,14.30
2023-04-17T13:34:30.219Z,14.40
2023-04-17T13:37:31.882Z,14.40
2023-04-17T13:40:33.645Z,14.60
2023-04-17T13:43:35.245Z,13.00
2023-04-17T13:46:37.128Z,15.10
2023-04-17T13:49:38.881Z,16.40
2023-04-17T13:52:40.621Z,13.10
2023-04-17T13:55:42.317Z,18.90
2023-04-17T13:58:43.962Z,11.30
2023-04-17T14:01:45.718Z,16.10
2023-04-17T14:04:47.519Z,14.20
2023-04-17T14:07:49.277Z,14.00
2023-04-17T14:10:50.893Z,11.20
2023-04-17T14:13:52.457Z,10.60
2023-04-17T14:16:54.158Z,10.90
2023-04-17T14:19:55.816Z,12.40
2023-04-17T14:22:57.527Z,9.60
2023-04-17T14:25:59.141Z,8.00
2023-04-17T14:29:00.783Z,7.50
2023-04-17T14:32:02.616Z,7.70
2023-04-17T14:35:05.130Z,6.50
2023-04-17T14:38:07.392Z,7.30
2023-04-17T14:41:09.088Z,8.80
2023-04-17T14:44:10.896Z,9.00
2023-04-17T14:47:12.688Z,10.20
2023-04-17T14:50:14.509Z,8.80
2023-04-17T14:53:16.291Z,8.90
2023-04-17T14:56:18.262Z,8.50
2023-04-17T14:59:20.358Z,9.50
2023-04-17T15:02:22.209Z,8.20
2023-04-17T15:05:24.164Z,7.40
2023-04-17T15:08:25.820Z,7.20
2023-04-17T15:11:27.573Z,7.90
2023-04-17T15:14:29.225Z,7.60
2023-04-17T15:17:30.956Z,7.50
2023-04-17T15:20:33.695Z,14.20
2023-04-17T15:23:37.717Z,8.20
2023-04-17T15:26:39.394Z,7.30
2023-04-17T15:29:41.587Z,6.90
2023-04-17T15:32:44.058Z,8.90
2023-04-17T15:35:45.873Z,13.90
2023-04-17T15:38:47.535Z,11.50
2023-04-17T15:41:49.278Z,13.30
2023-04-17T15:44:51.015Z,9.20
2023-04-17T15:47:53.166Z,7.40
2023-04-17T15:50:55.378Z,7.20
2023-04-17T15:53:57.127Z,5.40
2023-04-17T15:56:58.988Z,6.10
2023-04-17T16:00:00.622Z,6.50
2023-04-17T16:03:02.473Z,5.90
2023-04-17T16:06:04.820Z,6.30
2023-04-17T16:09:06.541Z,5.60
2023-04-17T16:12:10.041Z,6.00
2023-04-17T16:15:12.815Z,8.00
2023-04-17T16:18:14.479Z,7.00
2023-04-17T16:21:16.090Z,5.90
2023-04-17T16:24:17.759Z,5.20
2023-04-17T16:27:19.576Z,5.20
2023-04-17T16:30:21.846Z,4.80
2023-04-17T16:33:23.482Z,6.70
2023-04-17T16:36:25.206Z,6.80
2023-04-17T16:39:26.953Z,6.30
2023-04-17T16:42:28.728Z,6.00
2023-04-17T16:45:30.499Z,7.90
2023-04-17T16:48:32.372Z,7.10
2023-04-17T16:51:34.240Z,7.70
2023-04-17T16:54:35.963Z,5.50
2023-04-17T16:57:37.702Z,5.40
2023-04-17T17:00:39.457Z,6.10
2023-04-17T17:03:41.563Z,5.90
2023-04-17T17:06:43.443Z,5.60
2023-04-17T17:09:45.250Z,5.80
2023-04-17T17:12:46.902Z,6.30
2023-04-17T17:15:48.949Z,6.50
2023-04-17T17:18:50.833Z,6.40
2023-04-17T17:21:52.670Z,6.60
2023-04-17T17:24:54.581Z,6.10
2023-04-17T17:27:56.325Z,6.60
2023-04-17T17:31:08.313Z,6.40
2023-04-17T17:34:25.568Z,6.40
2023-04-17T17:37:28.808Z,5.70
2023-04-17T17:40:30.450Z,6.80
2023-04-17T17:43:32.097Z,6.40
2023-04-17T17:46:33.770Z,6.80
2023-04-17T17:49:35.466Z,6.80
2023-04-17T17:52:37.158Z,7.40
2023-04-17T17:55:39.577Z,7.20
2023-04-17T17:58:41.187Z,8.90
2023-04-17T18:01:43.026Z,8.10
2023-04-17T18:04:45.065Z,9.80
2023-04-17T18:07:47.259Z,9.50
2023-04-17T18:10:48.885Z,8.80
2023-04-17T18:13:51.269Z,8.10
2023-04-17T18:16:52.965Z,7.90
2023-04-17T18:19:54.732Z,10.10
2023-04-17T18:22:56.401Z,8.70
2023-04-17T18:26:02.603Z,9.10
2023-04-17T18:29:04.558Z,8.10
2023-04-17T18:32:06.324Z,8.90
2023-04-17T18:35:08.590Z,8.90
2023-04-17T18:38:10.357Z,9.20
2023-04-17T18:41:12.063Z,10.60
2023-04-17T18:44:13.988Z,10.40
2023-04-17T18:47:15.714Z,11.20
2023-04-17T18:50:17.672Z,11.40
2023-04-17T18:53:19.536Z,10.50
2023-04-17T18:56:21.466Z,10.40
2023-04-17T18:59:23.246Z,12.20
2023-04-17T19:02:25.131Z,10.80
2023-04-17T19:05:26.923Z,11.70
2023-04-17T19:08:28.863Z,11.10
2023-04-17T19:11:31.262Z,13.00
2023-04-17T19:14:33.026Z,12.00
2023-04-17T19:17:35.068Z,10.70
2023-04-17T19:20:37.208Z,11.70
2023-04-17T19:23:38.834Z,12.10
2023-04-17T19:26:40.687Z,11.50
2023-04-17T19:29:42.948Z,12.70
2023-04-17T19:32:44.724Z,14.40
2023-04-17T19:35:46.558Z,12.50
2023-04-17T19:38:48.639Z,12.70
2023-04-17T19:41:50.641Z,12.60
2023-04-17T19:44:52.884Z,12.50
2023-04-17T19:47:54.894Z,15.60
2023-04-17T19:50:56.822Z,12.60
2023-04-17T19:53:58.880Z,13.80
2023-04-17T19:57:00.770Z,13.10
2023-04-17T20:00:02.681Z,14.50
2023-04-17T20:03:04.457Z,12.70
2023-04-17T20:06:06.383Z,12.90
2023-04-17T20:09:08.395Z,12.40
2023-04-17T20:12:10.142Z,14.40
2023-04-17T20:15:11.896Z,12.90
2023-04-17T20:18:13.647Z,12.90
2023-04-17T20:21:15.288Z,13.80
2023-04-17T20:24:16.986Z,15.00
2023-04-17T20:27:18.679Z,13.10
2023-04-17T20:30:21.260Z,13.80
2023-04-17T20:33:23.084Z,14.30
2023-04-17T20:36:24.838Z,15.70
2023-04-17T20:39:26.502Z,15.40
2023-04-17T20:42:28.105Z,15.30
2023-04-17T20:45:29.822Z,14.70
2023-04-17T20:48:31.552Z,14.30
2023-04-17T20:51:33.191Z,14.60
2023-04-17T20:54:34.960Z,14.40
2023-04-17T20:57:36.554Z,16.00
2023-04-17T21:00:44.334Z,18.50
2023-04-17T21:03:49.369Z,17.00
2023-04-17T21:06:51.245Z,16.80
2023-04-17T21:09:53.008Z,14.70
2023-04-17T21:12:54.813Z,15.60
2023-04-17T21:15:56.481Z,13.90
2023-04-17T21:18:58.160Z,13.30
2023-04-17T21:21:59.766Z,14.00
2023-04-17T21:25:01.497Z,13.10
2023-04-17T21:28:03.364Z,13.90
2023-04-17T21:31:05.047Z,12.30
2023-04-17T21:34:07.172Z,14.20
2023-04-17T21:37:08.857Z,14.30
2023-04-17T21:40:10.903Z,13.50
2023-04-17T21:43:15.516Z,13.80
2023-04-17T21:46:17.315Z,14.70
2023-04-17T21:49:20.216Z,13.60
2023-04-17T21:52:21.785Z,13.00
2023-04-17T21:55:23.489Z,13.70
2023-04-17T21:58:25.377Z,14.00
2023-04-17T22:01:27.296Z,13.70
2023-04-17T22:04:29.108Z,13.80
2023-04-17T22:07:34.055Z,15.00
2023-04-17T22:10:37.866Z,14.00
2023-04-17T22:13:39.546Z,15.10
2023-04-17T22:16:41.185Z,14.70
2023-04-17T22:19:42.795Z,15.60
2023-04-17T22:23:22.395Z,14.90
2023-04-17T22:27:01.944Z,15.80
2023-04-17T22:30:41.142Z,15.30
2023-04-17T22:34:20.750Z,17.00
2023-04-17T22:38:00.211Z,16.60
2023-04-17T22:41:39.713Z,17.50
2023-04-17T22:45:19.175Z,17.90
2023-04-17T22:48:58.633Z,18.30
2023-04-17T22:52:38.297Z,18.70
2023-04-17T22:56:17.673Z,19.40
2023-04-17T22:59:57.647Z,19.40
2023-04-17T23:03:37.216Z,18.60
2023-04-17T23:07:17.070Z,17.30
2023-04-17T23:10:19.979Z,17.50
2023-04-17T23:13:21.630Z,17.20
2023-04-17T23:16:23.234Z,16.30
2023-04-17T23:19:24.899Z,17.60
2023-04-17T23:22:26.687Z,17.80
2023-04-17T23:25:28.361Z,17.10
2023-04-17T23:28:30.250Z,16.70
2023-04-17T23:31:31.962Z,16.90
2023-04-17T23:34:33.842Z,17.60
2023-04-17T23:37:35.739Z,17.20
2023-04-17T23:40:37.461Z,16.80
2023-04-17T23:43:39.157Z,16.90
2023-04-17T23:46:40.922Z,17.10
2023-04-17T23:49:42.646Z,16.70
2023-04-17T23:52:44.522Z,16.50
2023-04-17T23:55:46.253Z,18.40
2023-04-17T23:58:48.076Z,17.70
